createdAt,value
2022-10-26T00:04:35.614Z,7.32
2022-10-26T00:09:37.061Z,6.50
2022-10-26T00:14:38.509Z,5.88
2022-10-26T00:19:40.017Z,6.38
2022-10-26T00:24:41.481Z,6.85
2022-10-26T00:29:42.953Z,6.50
2022-10-26T00:34:44.441Z,6.32
2022-10-26T00:39:45.917Z,6.50
2022-10-26T00:44:47.216Z,6.25
2022-10-26T00:49:48.968Z,8.07
2022-10-26T00:54:50.568Z,7.00
2022-10-26T00:59:52.027Z,7.18
2022-10-26T01:04:53.669Z,7.97
2022-10-26T01:09:55.125Z,5.85
2022-10-26T01:14:56.593Z,5.90
2022-10-26T01:20:09.705Z,6.35
2022-10-26T01:25:17.111Z,7.45
2022-10-26T01:30:21.959Z,6.28
2022-10-26T01:35:30.233Z,6.53
2022-10-26T01:40:45.561Z,7.68
2022-10-26T01:45:47.593Z,8.35
2022-10-26T01:50:50.801Z,6.93
2022-10-26T01:55:53.132Z,7.53
2022-10-26T02:06:16.897Z,7.90
2022-10-26T02:11:38.160Z,7.57
2022-10-26T02:16:58.763Z,7.40
2022-10-26T02:22:04.906Z,7.80
2022-10-26T02:27:07.117Z,8.05
2022-10-26T02:32:08.579Z,7.90
2022-10-26T02:37:10.081Z,8.27
2022-10-26T02:42:11.594Z,8.48
2022-10-26T02:47:13.064Z,7.53
2022-10-26T02:52:24.470Z,8.13
2022-10-26T02:57:39.804Z,7.88
2022-10-26T03:07:50.175Z,7.13
2022-10-26T03:12:52.322Z,6.55
2022-10-26T03:17:53.946Z,8.20
2022-10-26T03:22:57.006Z,6.75
2022-10-26T03:27:59.374Z,7.05
2022-10-26T03:33:00.828Z,8.27
2022-10-26T03:38:02.276Z,6.68
2022-10-26T03:43:03.819Z,7.13
2022-10-26T03:48:05.486Z,8.95
2022-10-26T03:53:06.998Z,7.28
2022-10-26T03:58:08.441Z,7.90
2022-10-26T04:03:09.888Z,8.77
2022-10-26T04:08:11.458Z,8.52
2022-10-26T04:13:12.910Z,8.85
2022-10-26T04:18:14.374Z,7.72
2022-10-26T04:23:16.509Z,7.50
2022-10-26T04:28:18.060Z,6.68
2022-10-26T04:33:19.519Z,7.10
2022-10-26T04:38:20.969Z,6.18
2022-10-26T04:43:22.434Z,6.72
2022-10-26T04:58:28.393Z,6.90
2022-10-26T05:03:30.264Z,6.10
2022-10-26T05:08:31.839Z,6.80
2022-10-26T05:13:33.304Z,7.32
2022-10-26T05:18:34.743Z,7.45
2022-10-26T05:23:36.204Z,7.55
2022-10-26T05:28:37.653Z,7.28
2022-10-26T05:33:39.120Z,7.30
2022-10-26T05:38:41.645Z,6.50
2022-10-26T05:43:43.124Z,7.32
2022-10-26T05:48:44.656Z,7.25
2022-10-26T05:53:46.148Z,7.32
2022-10-26T05:58:48.038Z,7.88
2022-10-26T06:03:55.747Z,9.02
2022-10-26T06:08:57.434Z,9.35
2022-10-26T06:14:01.151Z,8.70
2022-10-26T06:19:09.702Z,9.95
2022-10-26T06:24:16.293Z,11.55
2022-10-26T06:29:36.182Z,9.45
2022-10-26T06:34:38.249Z,10.45
2022-10-26T06:39:42.325Z,12.23
2022-10-26T06:44:44.087Z,11.55
2022-10-26T06:50:01.041Z,9.85
2022-10-26T06:55:02.788Z,10.90
2022-10-26T07:00:06.828Z,10.88
2022-10-26T07:05:12.795Z,10.50
2022-10-26T07:10:14.649Z,10.13
2022-10-26T07:15:16.332Z,9.50
2022-10-26T07:20:18.816Z,11.52
2022-10-26T07:30:21.646Z,9.50
2022-10-26T07:35:23.118Z,9.85
2022-10-26T07:40:24.945Z,9.20
2022-10-26T07:45:26.877Z,7.93
2022-10-26T07:50:28.389Z,6.80
2022-10-26T07:55:29.842Z,6.13
2022-10-26T08:00:31.351Z,5.90
2022-10-26T08:05:32.863Z,5.32
2022-10-26T08:10:34.591Z,4.60
2022-10-26T08:15:36.078Z,5.03
2022-10-26T08:20:37.545Z,6.13
2022-10-26T08:25:39.031Z,6.55
2022-10-26T08:30:40.491Z,6.25
2022-10-26T08:35:41.968Z,5.93
2022-10-26T08:40:43.437Z,5.97
2022-10-26T08:45:52.705Z,5.82
2022-10-26T08:51:01.056Z,6.50
2022-10-26T08:56:14.719Z,5.45
2022-10-26T09:01:16.573Z,5.63
2022-10-26T09:06:25.692Z,6.13
2022-10-26T09:11:57.051Z,5.72
2022-10-26T09:17:26.171Z,5.80
2022-10-26T09:22:55.457Z,5.38
2022-10-26T09:27:58.685Z,5.03
2022-10-26T09:33:02.774Z,4.40
2022-10-26T09:38:09.960Z,4.03
2022-10-26T09:43:14.203Z,4.45
2022-10-26T09:48:43.384Z,3.88
2022-10-26T09:53:44.851Z,3.40
2022-10-26T09:58:54.130Z,3.55
2022-10-26T10:04:16.810Z,3.72
2022-10-26T10:09:22.376Z,3.70
2022-10-26T10:14:53.728Z,3.50
2022-10-26T10:19:55.205Z,4.10
2022-10-26T10:25:00.465Z,3.72
2022-10-26T10:30:23.904Z,3.90
2022-10-26T10:35:29.576Z,4.20
2022-10-26T10:40:31.468Z,3.50
2022-10-26T10:45:33.037Z,2.92
2022-10-26T10:50:34.788Z,2.72
2022-10-26T10:55:36.306Z,3.00
2022-10-26T11:00:37.917Z,3.30
2022-10-26T11:05:56.642Z,2.70
2022-10-26T11:11:10.461Z,3.53
2022-10-26T11:16:13.794Z,3.97
2022-10-26T11:21:25.168Z,3.40
2022-10-26T11:26:32.932Z,3.92
2022-10-26T11:31:39.081Z,3.97
2022-10-26T11:36:41.046Z,4.35
2022-10-26T11:41:47.178Z,4.20
2022-10-26T11:46:51.046Z,5.18
2022-10-26T11:52:17.820Z,5.55
2022-10-26T11:57:19.294Z,5.47
2022-10-26T12:02:24.808Z,5.10
2022-10-26T12:07:29.090Z,5.68
2022-10-26T12:12:35.109Z,5.30
2022-10-26T12:17:56.741Z,5.15
2022-10-26T12:22:58.185Z,5.72
2022-10-26T12:28:00.367Z,5.32
2022-10-26T12:38:23.748Z,5.05
2022-10-26T12:43:25.050Z,6.45
2022-10-26T12:48:45.436Z,5.70
2022-10-26T12:54:04.478Z,6.85
2022-10-26T12:59:21.205Z,6.68
2022-10-26T13:05:00.629Z,6.78
2022-10-26T13:10:06.049Z,6.15
2022-10-26T13:15:19.672Z,6.05
2022-10-26T13:20:21.118Z,6.90
2022-10-26T13:25:24.941Z,5.90
2022-10-26T13:30:44.071Z,6.47
2022-10-26T13:35:45.548Z,5.80
2022-10-26T13:40:46.997Z,6.13
2022-10-26T13:45:56.195Z,7.55
2022-10-26T13:51:00.224Z,7.03
2022-10-26T13:56:04.866Z,7.25
2022-10-26T14:01:08.989Z,6.60
2022-10-26T14:06:15.639Z,7.70
2022-10-26T14:11:19.397Z,7.82
2022-10-26T14:16:20.881Z,8.07
2022-10-26T14:21:22.764Z,6.80
2022-10-26T14:26:28.302Z,6.88
2022-10-26T14:31:31.362Z,6.90
2022-10-26T14:36:39.858Z,7.68
2022-10-26T14:41:41.323Z,8.60
2022-10-26T14:46:42.829Z,7.15
2022-10-26T14:51:44.307Z,7.47
2022-10-26T14:56:45.819Z,7.40
2022-10-26T15:01:59.859Z,6.60
2022-10-26T15:07:17.845Z,5.97
2022-10-26T15:12:35.635Z,6.95
2022-10-26T15:17:38.148Z,6.82
2022-10-26T15:22:39.608Z,6.22
2022-10-26T15:27:41.231Z,5.90
2022-10-26T15:32:42.702Z,5.80
2022-10-26T15:37:44.228Z,5.75
2022-10-26T15:42:47.481Z,5.00
2022-10-26T15:47:51.717Z,4.63
2022-10-26T15:53:01.213Z,4.30
2022-10-26T15:58:02.669Z,3.67
2022-10-26T16:03:04.171Z,4.05
2022-10-26T16:08:05.638Z,4.35
2022-10-26T16:13:12.178Z,3.90
2022-10-26T16:18:14.077Z,4.65
2022-10-26T16:23:15.556Z,4.05
2022-10-26T16:28:17.034Z,3.65
2022-10-26T16:33:18.521Z,4.32
2022-10-26T16:38:20.009Z,3.97
2022-10-26T16:43:21.470Z,4.25
2022-10-26T16:48:22.929Z,4.68
2022-10-26T16:53:24.386Z,4.20
2022-10-26T16:58:25.835Z,4.07
2022-10-26T17:03:27.302Z,4.63
2022-10-26T17:08:28.805Z,4.10
2022-10-26T17:13:30.409Z,4.70
2022-10-26T17:18:31.862Z,4.50
2022-10-26T17:23:33.311Z,3.90
2022-10-26T17:28:34.820Z,4.00
2022-10-26T17:33:37.004Z,4.57
2022-10-26T17:43:40.712Z,3.97
2022-10-26T17:48:42.222Z,3.90
2022-10-26T17:53:45.997Z,10.40
2022-10-26T17:58:54.396Z,4.78
2022-10-26T18:03:55.894Z,4.50
2022-10-26T18:08:57.636Z,5.22
2022-10-26T18:13:59.089Z,5.07
2022-10-26T18:19:04.372Z,5.20
2022-10-26T18:24:06.884Z,20.42
2022-10-26T18:29:08.339Z,5.57
2022-10-26T18:34:10.137Z,6.40
2022-10-26T18:39:11.593Z,6.05
2022-10-26T18:44:13.069Z,6.78
2022-10-26T18:49:16.574Z,6.35
2022-10-26T18:54:18.035Z,6.57
2022-10-26T18:59:19.526Z,6.93
2022-10-26T19:04:21.037Z,7.53
2022-10-26T19:09:22.508Z,7.43
2022-10-26T19:14:23.978Z,7.57
2022-10-26T19:19:25.424Z,8.23
2022-10-26T19:24:27.036Z,7.78
2022-10-26T19:29:28.508Z,6.85
2022-10-26T19:34:29.981Z,8.02
2022-10-26T19:39:31.435Z,8.38
2022-10-26T19:44:32.903Z,8.52
2022-10-26T19:49:34.412Z,9.32
2022-10-26T19:54:35.871Z,7.32
2022-10-26T19:59:37.328Z,7.15
2022-10-26T20:04:40.175Z,7.60
2022-10-26T20:09:41.678Z,8.30
2022-10-26T20:14:43.120Z,7.07
2022-10-26T20:19:44.577Z,8.45
2022-10-26T20:24:46.042Z,7.38
2022-10-26T20:29:47.489Z,6.78
2022-10-26T20:34:49.747Z,6.55
2022-10-26T20:45:16.222Z,6.65
2022-10-26T20:50:19.005Z,5.75
2022-10-26T20:55:55.490Z,5.47
2022-10-26T21:01:00.189Z,4.55
2022-10-26T21:06:01.841Z,4.97
2022-10-26T21:11:03.307Z,4.80
2022-10-26T21:16:05.542Z,4.20
2022-10-26T21:26:08.427Z,4.10
2022-10-26T21:31:10.566Z,4.70
2022-10-26T21:36:12.306Z,4.13
2022-10-26T21:41:18.234Z,4.70
2022-10-26T21:46:19.954Z,3.58
2022-10-26T21:51:21.414Z,3.90
2022-10-26T21:56:22.865Z,4.65
2022-10-26T22:01:24.466Z,4.28
2022-10-26T22:06:26.085Z,4.78
2022-10-26T22:11:27.569Z,4.22
2022-10-26T22:16:30.389Z,4.35
2022-10-26T22:21:34.926Z,3.75
2022-10-26T22:26:36.483Z,3.92
2022-10-26T22:31:38.734Z,3.03
2022-10-26T22:41:41.622Z,2.67
2022-10-26T22:46:43.078Z,3.10
2022-10-26T22:51:44.530Z,2.83
2022-10-26T22:56:45.979Z,3.80
2022-10-26T23:01:47.667Z,3.78
2022-10-26T23:06:49.206Z,3.05
2022-10-26T23:11:50.673Z,3.40
2022-10-26T23:16:52.120Z,3.40
2022-10-26T23:21:53.564Z,3.53
2022-10-26T23:26:55.013Z,3.83
2022-10-26T23:31:56.469Z,2.92
2022-10-26T23:36:57.912Z,3.38
2022-10-26T23:41:59.353Z,2.90
2022-10-26T23:47:00.828Z,3.00
2022-10-26T23:52:02.274Z,3.20
2022-10-26T23:57:03.925Z,2.47
